Time;durP1;ratioP1;P1;durP2;ratioP2;P2;SDS_P1;SDS_P2;PMS_P1;PMS_P2;Temp;Humidity;BMP_temperature;BMP_pressure;BME280_temperature;BME280_humidity;BME280_pressure;Samples;Min_cycle;Max_cycle;Signal;HPM_P1;HPM_P2
2023/09/21 00:00:28;;;;;;;4.78;3.70;;;;;;;;;;4996339;28;21023;-70
2023/09/21 00:02:55;;;;;;;4.90;3.72;;;;;;;;;;4997448;28;20713;-71
2023/09/21 00:05:21;;;;;;;11.27;3.58;;;;;;;;;;4997196;28;20050;-71
2023/09/21 00:07:47;;;;;;;7.43;3.95;;;;;;;;;;4998212;28;20050;-71
2023/09/21 00:10:13;;;;;;;3.92;3.42;;;;;;;;;;4998309;28;20053;-71
2023/09/21 00:12:40;;;;;;;4.38;3.53;;;;;;;;;;4997245;28;20042;-72
2023/09/21 00:15:06;;;;;;;5.72;3.80;;;;;;;;;;4997777;28;20127;-71
2023/09/21 00:17:37;;;;;;;4.32;3.30;;;;;;;;;;4997004;28;20053;-71
2023/09/21 00:20:10;;;;;;;5.63;4.30;;;;;;;;;;4998301;28;20092;-71
2023/09/21 00:22:37;;;;;;;7.28;5.03;;;;;;;;;;4997751;28;20038;-71
2023/09/21 00:25:04;;;;;;;5.10;4.22;;;;;;;;;;4997726;28;20058;-71
2023/09/21 00:27:30;;;;;;;6.25;4.43;;;;;;;;;;4996632;28;20076;-71
2023/09/21 00:29:55;;;;;;;4.70;3.88;;;;;;;;;;4997046;28;20073;-71
2023/09/21 00:32:21;;;;;;;6.03;4.28;;;;;;;;;;4995980;28;20046;-71
2023/09/21 00:34:49;;;;;;;5.38;4.00;;;;;;;;;;5012346;28;20042;-71
2023/09/21 00:37:19;;;;;;;5.13;3.65;;;;;;;;;;4995800;28;20046;-71
2023/09/21 00:39:44;;;;;;;8.18;3.78;;;;;;;;;;5012232;28;20485;-71
2023/09/21 00:42:10;;;;;;;4.63;3.97;;;;;;;;;;5013503;28;20053;-71
2023/09/21 00:44:35;;;;;;;6.25;4.20;;;;;;;;;;4995937;28;20054;-71
2023/09/21 00:47:01;;;;;;;5.72;3.90;;;;;;;;;;4995870;28;20052;-71
2023/09/21 00:49:29;;;;;;;5.75;3.88;;;;;;;;;;4995254;28;20053;-71
2023/09/21 00:51:55;;;;;;;4.25;3.47;;;;;;;;;;4997767;28;20053;-71
2023/09/21 00:54:22;;;;;;;4.95;4.00;;;;;;;;;;4995807;28;20062;-69
2023/09/21 00:56:52;;;;;;;4.60;3.78;;;;;;;;;;4997314;28;20395;-69
2023/09/21 00:59:19;;;;;;;5.03;3.65;;;;;;;;;;4995583;28;20052;-69
2023/09/21 01:01:46;;;;;;;5.43;4.53;;;;;;;;;;5012164;28;20940;-70
2023/09/21 01:04:12;;;;;;;7.13;4.50;;;;;;;;;;5012942;28;20057;-70
2023/09/21 01:06:39;;;;;;;7.65;4.10;;;;;;;;;;4997136;28;20048;-70
2023/09/21 01:09:06;;;;;;;5.53;4.07;;;;;;;;;;4995769;28;20049;-70
2023/09/21 01:11:36;;;;;;;9.15;5.10;;;;;;;;;;4996604;28;20450;-70
2023/09/21 01:14:02;;;;;;;5.80;4.35;;;;;;;;;;4997369;28;20585;-70
2023/09/21 01:16:27;;;;;;;5.47;3.97;;;;;;;;;;4999528;28;20759;-70
2023/09/21 01:18:53;;;;;;;8.25;4.40;;;;;;;;;;4999612;28;20037;-70
2023/09/21 01:21:27;;;;;;;5.55;4.50;;;;;;;;;;4999219;28;20046;-70
2023/09/21 01:23:53;;;;;;;6.03;4.93;;;;;;;;;;5016683;28;20038;-70
2023/09/21 01:26:22;;;;;;;13.27;4.85;;;;;;;;;;4982968;28;20506;-71
2023/09/21 01:28:48;;;;;;;5.35;4.78;;;;;;;;;;4999432;28;20068;-69
2023/09/21 01:31:14;;;;;;;6.88;5.00;;;;;;;;;;4999289;28;20575;-69
2023/09/21 01:33:41;;;;;;;6.90;4.90;;;;;;;;;;4998113;28;20072;-69
2023/09/21 01:36:08;;;;;;;6.18;4.35;;;;;;;;;;4998225;28;20053;-69
2023/09/21 01:38:35;;;;;;;5.05;3.88;;;;;;;;;;5014988;28;20049;-69
2023/09/21 01:41:02;;;;;;;5.88;4.10;;;;;;;;;;5000811;28;20116;-69
2023/09/21 01:43:27;;;;;;;5.57;4.13;;;;;;;;;;4998837;28;20049;-69
2023/09/21 01:45:54;;;;;;;5.22;4.25;;;;;;;;;;5001131;28;20525;-69
2023/09/21 01:48:20;;;;;;;8.02;4.45;;;;;;;;;;4997869;28;20057;-69
2023/09/21 01:50:50;;;;;;;5.60;4.18;;;;;;;;;;5015099;28;20034;-71
2023/09/21 01:53:21;;;;;;;5.63;4.15;;;;;;;;;;4983196;28;20056;-70
2023/09/21 01:55:47;;;;;;;5.55;4.38;;;;;;;;;;5015112;28;20045;-70
2023/09/21 01:58:14;;;;;;;5.63;4.60;;;;;;;;;;5015868;28;20045;-70
2023/09/21 02:00:48;;;;;;;5.28;4.78;;;;;;;;;;5013941;28;20078;-70
2023/09/21 02:03:17;;;;;;;8.48;4.20;;;;;;;;;;5000875;28;20061;-70
2023/09/21 02:05:48;;;;;;;5.20;4.32;;;;;;;;;;4999689;28;20104;-70
2023/09/21 02:08:16;;;;;;;10.70;4.15;;;;;;;;;;4999488;28;20190;-70
2023/09/21 02:10:44;;;;;;;5.75;3.40;;;;;;;;;;5013857;28;20038;-70
2023/09/21 02:13:09;;;;;;;4.57;3.78;;;;;;;;;;4999344;28;20063;-71
2023/09/21 02:15:39;;;;;;;4.88;4.05;;;;;;;;;;4998751;28;20045;-71
2023/09/21 02:18:06;;;;;;;5.60;3.80;;;;;;;;;;4999464;28;20057;-70
2023/09/21 02:20:35;;;;;;;5.95;3.63;;;;;;;;;;4998188;28;21248;-70
2023/09/21 02:23:02;;;;;;;5.90;4.00;;;;;;;;;;4997846;28;20548;-70
2023/09/21 02:25:31;;;;;;;5.38;4.35;;;;;;;;;;4999270;28;20050;-70
2023/09/21 02:27:56;;;;;;;5.20;4.35;;;;;;;;;;5000236;28;20061;-69
2023/09/21 02:30:23;;;;;;;7.05;4.60;;;;;;;;;;4998579;28;20407;-70
2023/09/21 02:32:53;;;;;;;11.85;4.45;;;;;;;;;;4998180;28;20125;-70
2023/09/21 02:35:25;;;;;;;6.25;4.70;;;;;;;;;;5000362;28;20121;-70
2023/09/21 02:37:52;;;;;;;6.40;4.90;;;;;;;;;;4998166;28;20109;-70
2023/09/21 02:40:19;;;;;;;6.78;5.05;;;;;;;;;;4998615;28;20054;-70
2023/09/21 02:42:50;;;;;;;6.65;5.10;;;;;;;;;;5013843;28;20038;-70
2023/09/21 02:45:18;;;;;;;7.38;4.90;;;;;;;;;;4999968;28;20060;-70
2023/09/21 02:47:43;;;;;;;5.35;4.40;;;;;;;;;;4997643;28;20530;-70
2023/09/21 02:50:21;;;;;;;6.93;5.43;;;;;;;;;;4998721;28;20037;-70
2023/09/21 02:52:49;;;;;;;7.28;4.80;;;;;;;;;;5013122;28;20156;-70
2023/09/21 02:55:18;;;;;;;6.50;4.47;;;;;;;;;;5014131;28;20581;-70
2023/09/21 02:57:47;;;;;;;7.40;5.35;;;;;;;;;;4997261;28;20053;-70
2023/09/21 03:00:21;;;;;;;7.22;5.45;;;;;;;;;;4998125;28;20054;-70
2023/09/21 03:02:48;;;;;;;8.10;5.70;;;;;;;;;;4998499;28;20192;-70
2023/09/21 03:05:16;;;;;;;13.07;6.15;;;;;;;;;;4997031;28;20696;-70
2023/09/21 03:07:43;;;;;;;10.82;5.55;;;;;;;;;;4996589;28;20054;-69
2023/09/21 03:10:10;;;;;;;5.93;5.28;;;;;;;;;;4998366;28;20046;-70
2023/09/21 03:12:37;;;;;;;9.68;5.53;;;;;;;;;;4998300;28;20046;-70
2023/09/21 03:15:07;;;;;;;10.30;5.30;;;;;;;;;;5014115;28;20567;-70
2023/09/21 03:17:34;;;;;;;6.72;5.15;;;;;;;;;;4996199;28;20077;-70
2023/09/21 03:20:13;;;;;;;6.00;5.07;;;;;;;;;;5014294;28;20057;-70
2023/09/21 03:22:41;;;;;;;9.55;5.13;;;;;;;;;;4996729;28;20168;-70
2023/09/21 03:25:16;;;;;;;5.97;4.93;;;;;;;;;;4997987;28;20574;-70
2023/09/21 03:27:42;;;;;;;7.07;4.97;;;;;;;;;;4996866;28;20060;-70
2023/09/21 03:30:11;;;;;;;6.97;5.70;;;;;;;;;;4997498;28;20656;-70
2023/09/21 03:32:40;;;;;;;5.95;4.95;;;;;;;;;;4997173;28;20049;-71
2023/09/21 03:35:06;;;;;;;6.20;4.72;;;;;;;;;;4997532;28;20104;-70
2023/09/21 03:37:32;;;;;;;6.53;5.22;;;;;;;;;;5011541;28;20053;-71
2023/09/21 03:39:58;;;;;;;8.55;5.55;;;;;;;;;;5011130;28;20495;-70
2023/09/21 03:42:24;;;;;;;8.07;5.20;;;;;;;;;;4997653;28;20084;-70
2023/09/21 03:44:50;;;;;;;5.85;4.88;;;;;;;;;;4996277;28;20069;-70
2023/09/21 03:47:17;;;;;;;5.63;4.40;;;;;;;;;;4996639;28;20078;-70
2023/09/21 03:49:46;;;;;;;8.85;5.45;;;;;;;;;;4996146;28;20905;-70
2023/09/21 03:52:15;;;;;;;7.38;5.70;;;;;;;;;;5013124;28;20672;-70
2023/09/21 03:54:52;;;;;;;9.35;5.60;;;;;;;;;;4995317;28;20061;-70
2023/09/21 03:57:17;;;;;;;11.27;5.47;;;;;;;;;;5013286;28;20065;-69
2023/09/21 03:59:46;;;;;;;6.68;5.00;;;;;;;;;;4996444;28;20050;-69
2023/09/21 04:02:14;;;;;;;6.10;4.88;;;;;;;;;;5013268;28;20053;-71
2023/09/21 04:04:41;;;;;;;5.55;4.35;;;;;;;;;;4996073;28;20445;-70
2023/09/21 04:07:07;;;;;;;4.85;4.30;;;;;;;;;;4996795;28;20053;-70
2023/09/21 04:09:34;;;;;;;6.82;4.70;;;;;;;;;;5012834;28;20049;-71
2023/09/21 04:12:00;;;;;;;9.48;6.82;;;;;;;;;;5012924;28;20610;-71
2023/09/21 04:14:27;;;;;;;12.77;8.35;;;;;;;;;;4997228;28;20056;-71
2023/09/21 04:16:52;;;;;;;11.43;8.43;;;;;;;;;;5011592;28;20802;-71
2023/09/21 04:19:18;;;;;;;9.65;7.03;;;;;;;;;;4996208;28;20054;-71
2023/09/21 04:21:46;;;;;;;13.85;8.30;;;;;;;;;;4995965;28;20034;-71
2023/09/21 04:24:13;;;;;;;18.58;7.57;;;;;;;;;;4979356;28;20070;-72
2023/09/21 04:26:39;;;;;;;15.27;7.65;;;;;;;;;;4995781;28;20045;-72
2023/09/21 04:29:07;;;;;;;9.13;6.68;;;;;;;;;;4996012;28;20065;-71
2023/09/21 04:31:32;;;;;;;7.95;5.60;;;;;;;;;;4995809;28;20045;-72
2023/09/21 04:33:58;;;;;;;9.25;5.78;;;;;;;;;;5013029;28;20053;-71
2023/09/21 04:36:24;;;;;;;7.80;5.80;;;;;;;;;;4996134;28;20045;-72
2023/09/21 04:38:51;;;;;;;7.15;5.55;;;;;;;;;;4995072;28;20163;-71
2023/09/21 04:41:16;;;;;;;6.60;5.00;;;;;;;;;;4997177;28;20115;-71
2023/09/21 04:43:44;;;;;;;6.90;5.00;;;;;;;;;;4996177;28;20052;-71
2023/09/21 04:46:11;;;;;;;5.70;4.78;;;;;;;;;;4995308;28;20045;-71
2023/09/21 04:48:39;;;;;;;7.32;5.18;;;;;;;;;;4994733;28;20125;-72
2023/09/21 04:51:04;;;;;;;7.93;5.22;;;;;;;;;;5012099;28;20081;-71
2023/09/21 04:53:30;;;;;;;9.18;5.30;;;;;;;;;;4995633;28;20078;-71
2023/09/21 04:55:56;;;;;;;6.72;4.80;;;;;;;;;;4994514;28;20048;-70
2023/09/21 04:58:23;;;;;;;8.88;5.32;;;;;;;;;;4998140;28;20136;-71
2023/09/21 05:00:49;;;;;;;6.18;4.78;;;;;;;;;;4995108;28;20045;-71
2023/09/21 05:03:15;;;;;;;9.07;5.32;;;;;;;;;;5012604;28;20077;-71
2023/09/21 05:05:41;;;;;;;8.00;5.00;;;;;;;;;;4995826;28;20120;-71
2023/09/21 05:08:09;;;;;;;5.30;4.80;;;;;;;;;;4995377;28;20053;-71
2023/09/21 05:10:34;;;;;;;9.20;5.05;;;;;;;;;;5011810;28;20112;-71
2023/09/21 05:13:00;;;;;;;7.72;4.75;;;;;;;;;;4995210;28;20145;-71
2023/09/21 05:15:25;;;;;;;6.13;4.70;;;;;;;;;;4995948;28;20034;-71
2023/09/21 05:17:50;;;;;;;6.90;5.05;;;;;;;;;;4993036;28;20050;-71
2023/09/21 05:20:16;;;;;;;6.15;5.05;;;;;;;;;;4995343;28;20076;-71
2023/09/21 05:22:42;;;;;;;6.03;4.80;;;;;;;;;;4993690;28;20096;-72
2023/09/21 05:25:09;;;;;;;5.03;4.53;;;;;;;;;;4995333;28;20149;-71
2023/09/21 05:27:36;;;;;;;7.32;4.90;;;;;;;;;;4994651;28;20069;-71
2023/09/21 05:30:04;;;;;;;6.55;5.30;;;;;;;;;;4993495;28;20264;-71
2023/09/21 05:32:33;;;;;;;6.15;5.05;;;;;;;;;;4997010;28;20404;-71
2023/09/21 05:34:59;;;;;;;7.38;5.43;;;;;;;;;;4996637;28;20053;-71
2023/09/21 05:37:24;;;;;;;8.13;4.93;;;;;;;;;;4997028;28;20046;-71
2023/09/21 05:39:51;;;;;;;6.03;4.68;;;;;;;;;;4992828;28;20136;-71
2023/09/21 05:42:17;;;;;;;6.68;5.65;;;;;;;;;;4997612;28;20103;-71
2023/09/21 05:44:43;;;;;;;8.43;6.03;;;;;;;;;;4996009;28;20143;-71
2023/09/21 05:47:09;;;;;;;9.38;6.63;;;;;;;;;;4997026;28;20045;-71
2023/09/21 05:49:36;;;;;;;8.40;6.18;;;;;;;;;;4997349;28;20053;-71
2023/09/21 05:52:03;;;;;;;9.77;6.63;;;;;;;;;;5011762;28;20727;-71
2023/09/21 05:54:29;;;;;;;8.80;6.72;;;;;;;;;;4997605;28;20050;-71
2023/09/21 05:56:55;;;;;;;8.48;6.00;;;;;;;;;;4995827;28;20052;-72
2023/09/21 05:59:22;;;;;;;8.10;5.63;;;;;;;;;;4990788;28;20100;-70
2023/09/21 06:01:48;;;;;;;7.70;5.30;;;;;;;;;;4997015;28;20494;-71
2023/09/21 06:04:16;;;;;;;6.45;4.05;;;;;;;;;;5000695;28;20066;-71
2023/09/21 06:06:42;;;;;;;7.90;4.20;;;;;;;;;;4999527;28;20502;-71
2023/09/21 06:09:10;;;;;;;6.28;4.05;;;;;;;;;;5000589;28;20060;-71
2023/09/21 06:11:36;;;;;;;5.38;3.95;;;;;;;;;;5000284;28;20058;-71
2023/09/21 06:14:02;;;;;;;5.13;4.05;;;;;;;;;;4999846;28;20144;-71
2023/09/21 06:16:29;;;;;;;5.60;4.18;;;;;;;;;;5000431;28;20046;-73
2023/09/21 06:18:54;;;;;;;4.13;3.72;;;;;;;;;;4998499;28;20053;-73
2023/09/21 06:21:20;;;;;;;4.75;3.72;;;;;;;;;;4999306;28;20068;-75
2023/09/21 06:23:45;;;;;;;4.63;3.45;;;;;;;;;;4999383;28;20050;-74
2023/09/21 06:26:14;;;;;;;4.75;3.78;;;;;;;;;;4997679;28;20146;-74
2023/09/21 06:28:43;;;;;;;9.52;4.50;;;;;;;;;;4999962;28;20104;-74
2023/09/21 06:31:10;;;;;;;5.13;3.75;;;;;;;;;;4999288;28;20084;-74
2023/09/21 06:33:35;;;;;;;4.55;3.63;;;;;;;;;;4999148;28;20050;-73
2023/09/21 06:36:00;;;;;;;4.13;3.65;;;;;;;;;;4999202;28;20148;-74
2023/09/21 06:38:26;;;;;;;6.85;3.30;;;;;;;;;;4999285;28;20038;-73
2023/09/21 06:40:51;;;;;;;2.92;2.60;;;;;;;;;;4998668;28;20045;-75
2023/09/21 06:43:17;;;;;;;4.07;3.08;;;;;;;;;;4999154;28;20151;-74
2023/09/21 06:45:42;;;;;;;4.40;2.47;;;;;;;;;;4999206;28;20549;-74
2023/09/21 06:48:11;;;;;;;3.22;2.90;;;;;;;;;;4998445;28;20072;-73
2023/09/21 06:50:40;;;;;;;3.05;2.75;;;;;;;;;;4998337;28;20247;-73
2023/09/21 06:53:07;;;;;;;3.08;2.63;;;;;;;;;;4999158;28;20046;-73
2023/09/21 06:55:34;;;;;;;3.50;2.42;;;;;;;;;;4999128;28;20057;-74
2023/09/21 06:57:59;;;;;;;3.38;2.30;;;;;;;;;;4997295;28;20053;-71
2023/09/21 07:00:25;;;;;;;5.75;2.50;;;;;;;;;;5000716;28;20461;-74
2023/09/21 07:02:50;;;;;;;3.47;2.38;;;;;;;;;;5000023;28;20100;-73
2023/09/21 07:05:15;;;;;;;3.17;2.42;;;;;;;;;;5002401;28;20042;-74
2023/09/21 07:07:41;;;;;;;4.25;2.50;;;;;;;;;;5002574;28;20046;-74
2023/09/21 07:10:11;;;;;;;5.28;3.00;;;;;;;;;;4990903;28;20414;-73
2023/09/21 07:12:38;;;;;;;7.32;2.85;;;;;;;;;;4983734;28;20057;-73
2023/09/21 07:15:04;;;;;;;5.85;2.70;;;;;;;;;;4981198;28;20495;-73
2023/09/21 07:17:29;;;;;;;3.58;2.85;;;;;;;;;;4992634;28;20411;-74
2023/09/21 07:19:55;;;;;;;6.97;3.15;;;;;;;;;;4978414;28;20057;-73
2023/09/21 07:22:20;;;;;;;6.68;3.42;;;;;;;;;;4980067;28;20065;-74
2023/09/21 07:24:47;;;;;;;8.32;3.25;;;;;;;;;;4993236;28;20077;-73
2023/09/21 07:27:16;;;;;;;5.72;2.90;;;;;;;;;;4978294;28;20134;-74
2023/09/21 07:29:42;;;;;;;3.10;2.28;;;;;;;;;;4978651;28;20137;-73
2023/09/21 07:32:10;;;;;;;5.25;2.33;;;;;;;;;;4994248;28;20129;-74
2023/09/21 07:34:36;;;;;;;2.05;1.88;;;;;;;;;;4979763;28;20050;-75
2023/09/21 07:37:01;;;;;;;3.67;2.05;;;;;;;;;;4978254;28;20062;-73
2023/09/21 07:39:28;;;;;;;2.75;2.17;;;;;;;;;;4979559;28;21071;-74
2023/09/21 07:41:54;;;;;;;3.72;2.30;;;;;;;;;;4980842;28;20053;-73
2023/09/21 07:44:20;;;;;;;2.95;1.95;;;;;;;;;;4980292;28;20046;-74
2023/09/21 07:46:46;;;;;;;2.67;2.10;;;;;;;;;;4993018;28;20050;-74
2023/09/21 07:49:12;;;;;;;2.40;1.90;;;;;;;;;;4979503;28;20042;-74
2023/09/21 07:51:37;;;;;;;2.70;1.90;;;;;;;;;;4993614;28;20522;-73
2023/09/21 07:54:03;;;;;;;3.13;2.03;;;;;;;;;;4978604;28;20832;-75
2023/09/21 07:56:32;;;;;;;1.85;1.67;;;;;;;;;;4978846;28;20046;-76
2023/09/21 07:58:58;;;;;;;3.60;1.98;;;;;;;;;;4976234;28;20522;-74
2023/09/21 08:01:26;;;;;;;3.92;2.17;;;;;;;;;;4979039;28;20050;-74
2023/09/21 08:03:54;;;;;;;2.63;2.00;;;;;;;;;;4976391;28;20058;-74
2023/09/21 08:06:19;;;;;;;2.97;2.08;;;;;;;;;;4990866;28;20042;-76
2023/09/21 08:08:46;;;;;;;2.65;2.45;;;;;;;;;;4995713;28;20850;-74
2023/09/21 08:11:12;;;;;;;4.72;2.70;;;;;;;;;;4999011;28;20116;-75
2023/09/21 08:13:38;;;;;;;2.53;2.28;;;;;;;;;;4997985;28;20050;-73
2023/09/21 08:16:04;;;;;;;3.30;3.00;;;;;;;;;;4997610;28;20045;-76
2023/09/21 08:18:29;;;;;;;4.45;2.20;;;;;;;;;;4998365;28;20052;-76
2023/09/21 08:20:55;;;;;;;2.85;1.98;;;;;;;;;;4997101;28;20052;-76
2023/09/21 08:23:20;;;;;;;3.38;2.17;;;;;;;;;;4996810;28;20495;-76
2023/09/21 08:25:46;;;;;;;2.30;1.95;;;;;;;;;;4995153;28;20130;-76
2023/09/21 08:28:12;;;;;;;4.57;2.10;;;;;;;;;;4980162;28;20869;-76
2023/09/21 08:30:38;;;;;;;2.40;2.20;;;;;;;;;;4998009;28;20384;-75
2023/09/21 08:33:07;;;;;;;2.58;2.00;;;;;;;;;;4996319;28;20054;-75
2023/09/21 08:35:32;;;;;;;2.30;2.10;;;;;;;;;;4997860;28;20591;-74
2023/09/21 08:37:58;;;;;;;4.00;2.42;;;;;;;;;;4997374;28;20053;-74
2023/09/21 08:40:24;;;;;;;2.28;2.08;;;;;;;;;;4998223;28;20042;-75
2023/09/21 08:42:52;;;;;;;3.25;1.83;;;;;;;;;;4996254;28;20045;-75
2023/09/21 08:45:19;;;;;;;2.95;2.20;;;;;;;;;;4998765;28;20052;-75
2023/09/21 08:47:46;;;;;;;2.33;2.08;;;;;;;;;;4979085;28;20056;-73
2023/09/21 08:50:13;;;;;;;2.58;1.80;;;;;;;;;;4997577;28;20132;-72
2023/09/21 08:52:42;;;;;;;3.13;2.40;;;;;;;;;;4980452;28;20453;-72
2023/09/21 08:55:10;;;;;;;2.28;2.00;;;;;;;;;;4997502;28;20077;-72
2023/09/21 08:57:37;;;;;;;3.47;2.47;;;;;;;;;;4997347;28;20054;-73
2023/09/21 09:00:06;;;;;;;5.78;2.10;;;;;;;;;;4997090;28;20058;-73
2023/09/21 09:02:35;;;;;;;3.15;2.03;;;;;;;;;;4997872;28;21058;-72
2023/09/21 09:05:04;;;;;;;5.18;2.33;;;;;;;;;;4995266;28;20046;-73
2023/09/21 09:07:41;;;;;;;4.95;1.90;;;;;;;;;;4996532;28;20204;-73
2023/09/21 09:10:11;;;;;;;2.30;1.77;;;;;;;;;;4996607;28;20042;-73
2023/09/21 09:12:37;;;;;;;1.73;1.60;;;;;;;;;;4997849;28;20046;-73
2023/09/21 09:15:04;;;;;;;3.78;1.80;;;;;;;;;;4996182;28;20078;-73
2023/09/21 09:17:32;;;;;;;2.45;1.90;;;;;;;;;;4997398;28;20053;-72
2023/09/21 09:20:02;;;;;;;2.42;1.60;;;;;;;;;;4996050;28;20054;-73
2023/09/21 09:22:31;;;;;;;3.63;1.77;;;;;;;;;;4998153;28;20041;-73
2023/09/21 09:24:58;;;;;;;3.60;1.50;;;;;;;;;;4994753;28;20048;-73
2023/09/21 09:27:25;;;;;;;2.25;1.65;;;;;;;;;;4997419;28;20499;-73
2023/09/21 09:29:51;;;;;;;1.38;1.27;;;;;;;;;;4997150;28;20554;-73
2023/09/21 09:32:22;;;;;;;1.75;1.35;;;;;;;;;;4995373;28;20498;-74
2023/09/21 09:34:48;;;;;;;2.25;1.42;;;;;;;;;;4979491;28;20133;-75
2023/09/21 09:37:15;;;;;;;1.80;1.55;;;;;;;;;;5000660;28;20077;-74
2023/09/21 09:39:44;;;;;;;4.88;1.83;;;;;;;;;;4983574;28;20050;-74
2023/09/21 09:42:11;;;;;;;2.53;1.55;;;;;;;;;;5000424;28;20256;-72
2023/09/21 09:44:42;;;;;;;2.53;1.52;;;;;;;;;;5001310;28;20061;-72
2023/09/21 09:47:09;;;;;;;;;;;;;;;;;;5000356;28;20053;-73
2023/09/21 09:49:39;;;;;;;3.47;1.30;;;;;;;;;;5001028;28;20079;-73
2023/09/21 09:52:07;;;;;;;1.65;1.33;;;;;;;;;;5000357;28;20931;-72
2023/09/21 09:54:32;;;;;;;1.40;1.10;;;;;;;;;;5000428;28;20212;-72
2023/09/21 09:56:59;;;;;;;2.42;1.40;;;;;;;;;;4999163;28;20042;-73
2023/09/21 09:59:28;;;;;;;1.67;1.40;;;;;;;;;;5000741;28;20045;-72
2023/09/21 10:01:54;;;;;;;1.40;1.30;;;;;;;;;;4999660;28;20085;-72
2023/09/21 10:04:21;;;;;;;1.48;1.30;;;;;;;;;;5000717;28;20124;-72
2023/09/21 10:06:47;;;;;;;1.70;1.15;;;;;;;;;;4999504;28;20140;-73
2023/09/21 10:09:14;;;;;;;2.25;1.65;;;;;;;;;;5000071;28;20057;-72
2023/09/21 10:11:50;;;;;;;2.15;1.40;;;;;;;;;;4999848;28;20786;-72
2023/09/21 10:14:17;;;;;;;1.45;1.13;;;;;;;;;;4999056;28;20111;-72
2023/09/21 10:16:53;;;;;;;1.80;1.23;;;;;;;;;;4982520;28;20060;-72
2023/09/21 10:19:29;;;;;;;3.72;1.20;;;;;;;;;;4966634;28;20092;-74
2023/09/21 10:21:59;;;;;;;1.30;1.20;;;;;;;;;;4998941;28;20104;-73
2023/09/21 10:24:29;;;;;;;2.08;1.23;;;;;;;;;;4999684;28;20060;-73
2023/09/21 10:26:58;;;;;;;2.40;1.23;;;;;;;;;;4998023;28;20041;-74
2023/09/21 10:29:32;;;;;;;3.15;1.25;;;;;;;;;;4982204;28;20052;-72
2023/09/21 10:32:05;;;;;;;2.63;0.93;;;;;;;;;;4998999;28;20066;-71
2023/09/21 10:34:31;;;;;;;2.05;1.42;;;;;;;;;;4999832;28;20038;-72
2023/09/21 10:37:10;;;;;;;4.38;1.40;;;;;;;;;;4997521;28;20104;-72
2023/09/21 10:39:39;;;;;;;3.35;1.05;;;;;;;;;;4993393;28;20046;-72
2023/09/21 10:42:05;;;;;;;1.40;1.23;;;;;;;;;;4992567;28;20131;-71
2023/09/21 10:45:03;;;;;;;1.20;1.08;;;;;;;;;;4987940;28;20443;-71
2023/09/21 10:47:33;;;;;;;3.85;1.35;;;;;;;;;;5003007;28;20155;-73
2023/09/21 10:50:03;;;;;;;2.47;1.23;;;;;;;;;;5005780;28;20099;-73
2023/09/21 10:52:29;;;;;;;3.50;1.30;;;;;;;;;;5004234;28;20042;-72
2023/09/21 10:54:56;;;;;;;1.45;1.20;;;;;;;;;;4999645;28;20466;-72
2023/09/21 10:57:31;;;;;;;8.43;1.33;;;;;;;;;;5015281;28;20418;-73
2023/09/21 10:59:59;;;;;;;1.85;1.20;;;;;;;;;;4996516;28;20042;-72
2023/09/21 11:02:30;;;;;;;2.80;1.10;;;;;;;;;;5014032;28;20600;-72
2023/09/21 11:04:57;;;;;;;4.38;1.02;;;;;;;;;;4997827;28;20403;-72
2023/09/21 11:07:24;;;;;;;1.55;0.80;;;;;;;;;;4998996;28;20080;-73
2023/09/21 11:09:50;;;;;;;1.40;1.00;;;;;;;;;;5013159;28;20168;-73
2023/09/21 11:12:18;;;;;;;2.80;0.90;;;;;;;;;;4998894;28;20125;-71
2023/09/21 11:14:48;;;;;;;2.60;1.02;;;;;;;;;;4981106;28;20972;-75
2023/09/21 11:17:16;;;;;;;0.95;0.80;;;;;;;;;;4998563;28;20926;-73
2023/09/21 11:19:42;;;;;;;3.22;0.80;;;;;;;;;;4999074;28;20115;-72
2023/09/21 11:22:12;;;;;;;2.88;1.17;;;;;;;;;;4996615;28;20510;-73
2023/09/21 11:24:38;;;;;;;1.33;1.15;;;;;;;;;;4998646;28;20073;-73
2023/09/21 11:27:07;;;;;;;1.55;0.80;;;;;;;;;;4997268;28;20581;-73
2023/09/21 11:29:40;;;;;;;0.95;0.65;;;;;;;;;;4999012;28;20046;-73
2023/09/21 11:32:07;;;;;;;1.02;0.93;;;;;;;;;;4997046;28;20084;-73
2023/09/21 11:34:39;;;;;;;1.92;0.90;;;;;;;;;;4998578;28;20045;-73
2023/09/21 11:37:12;;;;;;;1.10;0.82;;;;;;;;;;4996917;28;20057;-72
2023/09/21 11:39:39;;;;;;;0.80;0.80;;;;;;;;;;4997655;28;20499;-72
2023/09/21 11:42:10;;;;;;;1.83;0.98;;;;;;;;;;4998125;28;20073;-73
2023/09/21 11:44:39;;;;;;;3.20;0.60;;;;;;;;;;4995277;28;20049;-72
2023/09/21 11:47:07;;;;;;;1.13;0.88;;;;;;;;;;4996221;28;20103;-72
2023/09/21 11:49:41;;;;;;;1.52;1.20;;;;;;;;;;4997737;28;20089;-72
2023/09/21 11:52:09;;;;;;;0.60;0.60;;;;;;;;;;4997962;28;20078;-72
2023/09/21 11:54:35;;;;;;;0.80;0.60;;;;;;;;;;4997759;28;20077;-72
2023/09/21 11:57:09;;;;;;;0.75;0.68;;;;;;;;;;4995703;28;20053;-73
2023/09/21 11:59:39;;;;;;;2.65;0.90;;;;;;;;;;4998050;28;20499;-73
2023/09/21 12:02:09;;;;;;;1.23;0.82;;;;;;;;;;4995460;28;20045;-72
2023/09/21 12:04:38;;;;;;;0.82;0.80;;;;;;;;;;5012877;28;20050;-73
2023/09/21 12:07:05;;;;;;;3.13;0.70;;;;;;;;;;4996366;28;20353;-73
2023/09/21 12:09:31;;;;;;;1.08;0.98;;;;;;;;;;4997966;28;20133;-72
2023/09/21 12:11:58;;;;;;;1.20;0.70;;;;;;;;;;4997731;28;20160;-72
2023/09/21 12:14:23;;;;;;;1.30;0.90;;;;;;;;;;4998101;28;20046;-72
2023/09/21 12:16:50;;;;;;;0.50;0.50;;;;;;;;;;4995831;28;20064;-72
2023/09/21 12:19:19;;;;;;;0.98;0.65;;;;;;;;;;4996379;28;20077;-73
2023/09/21 12:21:48;;;;;;;0.70;0.70;;;;;;;;;;4997500;28;20604;-74
2023/09/21 12:24:14;;;;;;;0.88;0.68;;;;;;;;;;4997610;28;20058;-74
2023/09/21 12:26:41;;;;;;;0.93;0.73;;;;;;;;;;4996748;28;20061;-74
2023/09/21 12:29:10;;;;;;;2.75;0.60;;;;;;;;;;4995142;28;20993;-72
2023/09/21 12:31:37;;;;;;;0.88;0.80;;;;;;;;;;4997056;28;20494;-72
2023/09/21 12:34:04;;;;;;;0.82;0.63;;;;;;;;;;4997947;28;20038;-71
2023/09/21 12:36:29;;;;;;;0.60;0.60;;;;;;;;;;4997513;28;20049;-71
2023/09/21 12:38:55;;;;;;;1.15;0.68;;;;;;;;;;4995755;28;20049;-72
2023/09/21 12:41:21;;;;;;;0.47;0.47;;;;;;;;;;4996665;28;20050;-72
2023/09/21 12:43:47;;;;;;;0.70;0.70;;;;;;;;;;5012671;28;20045;-71
2023/09/21 12:46:14;;;;;;;2.17;0.65;;;;;;;;;;4996132;28;20426;-73
2023/09/21 12:48:39;;;;;;;1.10;0.70;;;;;;;;;;4997008;28;20499;-71
2023/09/21 12:51:05;;;;;;;1.77;0.82;;;;;;;;;;4996128;28;20058;-70
2023/09/21 12:53:31;;;;;;;1.00;0.73;;;;;;;;;;4997244;28;20058;-73
2023/09/21 12:55:57;;;;;;;1.67;0.60;;;;;;;;;;4997686;28;20096;-76
2023/09/21 12:58:23;;;;;;;1.30;0.50;;;;;;;;;;4995801;28;20057;-74
2023/09/21 13:00:49;;;;;;;1.17;0.77;;;;;;;;;;4995500;28;21049;-73
2023/09/21 13:03:15;;;;;;;0.85;0.85;;;;;;;;;;4996521;28;20128;-73
2023/09/21 13:05:45;;;;;;;0.70;0.60;;;;;;;;;;4997196;28;20124;-73
2023/09/21 13:08:12;;;;;;;0.90;0.65;;;;;;;;;;5011151;28;20052;-73
2023/09/21 13:10:43;;;;;;;0.93;0.60;;;;;;;;;;4976098;28;20050;-71
2023/09/21 13:13:09;;;;;;;;;;;;;;;;;;4991635;28;20210;-72
2023/09/21 13:15:35;;;;;;;0.82;0.52;;;;;;;;;;4999666;28;20019;-71
2023/09/21 13:18:01;;;;;;;3.10;0.65;;;;;;;;;;4999408;28;20069;-71
2023/09/21 13:20:26;;;;;;;2.63;0.60;;;;;;;;;;5000787;28;20541;-72
2023/09/21 13:22:52;;;;;;;2.00;0.70;;;;;;;;;;5015416;28;20050;-72
2023/09/21 13:25:18;;;;;;;0.75;0.70;;;;;;;;;;5000376;28;20104;-72
2023/09/21 13:27:43;;;;;;;0.50;0.50;;;;;;;;;;4999125;28;20050;-72
2023/09/21 13:30:09;;;;;;;1.10;0.70;;;;;;;;;;4999643;28;20128;-72
2023/09/21 13:32:35;;;;;;;0.50;0.50;;;;;;;;;;5000694;28;20061;-73
2023/09/21 13:35:01;;;;;;;1.45;0.80;;;;;;;;;;5000378;28;20045;-72
2023/09/21 13:37:27;;;;;;;1.33;0.68;;;;;;;;;;5015835;28;20143;-72
2023/09/21 13:39:52;;;;;;;0.65;0.60;;;;;;;;;;4999449;28;20602;-72
2023/09/21 13:42:18;;;;;;;0.77;0.75;;;;;;;;;;4996709;28;20057;-70
2023/09/21 13:44:43;;;;;;;0.60;0.50;;;;;;;;;;5000471;28;20108;-69
2023/09/21 13:47:08;;;;;;;0.70;0.70;;;;;;;;;;4999343;28;20485;-70
2023/09/21 13:49:34;;;;;;;0.50;0.50;;;;;;;;;;5001155;28;20104;-69
2023/09/21 13:52:00;;;;;;;0.98;0.68;;;;;;;;;;5001153;28;20042;-69
2023/09/21 13:54:26;;;;;;;2.35;0.80;;;;;;;;;;4998629;28;20117;-69
2023/09/21 13:56:51;;;;;;;2.80;0.70;;;;;;;;;;5000102;28;20137;-67
2023/09/21 13:59:20;;;;;;;0.55;0.50;;;;;;;;;;5000770;28;20053;-68
2023/09/21 14:01:49;;;;;;;0.60;0.60;;;;;;;;;;5001416;28;20974;-69
2023/09/21 14:04:15;;;;;;;0.75;0.60;;;;;;;;;;5001751;28;20050;-70
2023/09/21 14:06:40;;;;;;;0.65;0.65;;;;;;;;;;5001881;28;20062;-70
2023/09/21 14:09:07;;;;;;;4.68;0.80;;;;;;;;;;5003769;28;20602;-69
2023/09/21 14:11:33;;;;;;;1.38;0.73;;;;;;;;;;5004232;28;20191;-70
2023/09/21 14:14:00;;;;;;;0.77;0.77;;;;;;;;;;5002897;28;20060;-72
2023/09/21 14:16:26;;;;;;;0.55;0.55;;;;;;;;;;5000045;28;20544;-70
2023/09/21 14:18:52;;;;;;;2.13;0.75;;;;;;;;;;5000335;28;20657;-71
2023/09/21 14:21:17;;;;;;;1.27;0.60;;;;;;;;;;4997415;28;20613;-70
2023/09/21 14:23:42;;;;;;;0.95;0.70;;;;;;;;;;5000776;28;20050;-69
2023/09/21 14:26:08;;;;;;;0.73;0.70;;;;;;;;;;5000075;28;20053;-69
2023/09/21 14:28:35;;;;;;;0.50;0.50;;;;;;;;;;4999373;28;20049;-71
2023/09/21 14:31:01;;;;;;;0.82;0.60;;;;;;;;;;4999544;28;20049;-71
2023/09/21 14:33:27;;;;;;;1.73;0.73;;;;;;;;;;5000081;28;20064;-69
2023/09/21 14:35:53;;;;;;;0.63;0.50;;;;;;;;;;5000370;28;20096;-70
2023/09/21 14:38:19;;;;;;;1.08;0.70;;;;;;;;;;4998744;28;20112;-70
2023/09/21 14:40:45;;;;;;;1.02;0.60;;;;;;;;;;5000238;28;20041;-70
2023/09/21 14:43:10;;;;;;;6.85;0.60;;;;;;;;;;4999484;28;20053;-70